createdAt,value
2023-01-19T00:00:53.290Z,9.45
2023-01-19T00:03:20.154Z,8.63
2023-01-19T00:05:47.143Z,14.88
2023-01-19T00:08:16.925Z,11.35
2023-01-19T00:10:45.776Z,10.82
2023-01-19T00:13:13.654Z,8.50
2023-01-19T00:15:41.457Z,12.60
2023-01-19T00:18:10.643Z,7.78
2023-01-19T00:20:39.746Z,9.00
2023-01-19T00:23:08.326Z,11.27
2023-01-19T00:25:36.293Z,11.23
2023-01-19T00:28:03.291Z,8.30
2023-01-19T00:30:30.680Z,12.90
2023-01-19T00:33:01.120Z,10.93
2023-01-19T00:35:29.877Z,10.85
2023-01-19T00:38:00.390Z,9.27
2023-01-19T00:40:27.879Z,10.52
2023-01-19T00:42:55.037Z,10.70
2023-01-19T00:45:23.293Z,8.48
2023-01-19T00:47:54.837Z,7.55
2023-01-19T00:50:21.802Z,9.85
2023-01-19T00:52:48.660Z,10.05
2023-01-19T00:55:16.182Z,9.80
2023-01-19T00:57:43.638Z,7.05
2023-01-19T01:00:16.209Z,8.30
2023-01-19T01:05:11.890Z,10.90
2023-01-19T01:07:41.466Z,10.75
2023-01-19T01:10:09.489Z,10.50
2023-01-19T01:12:38.242Z,9.20
2023-01-19T01:15:09.302Z,9.85
2023-01-19T01:17:39.727Z,9.45
2023-01-19T01:20:08.105Z,7.43
2023-01-19T01:22:35.517Z,7.93
2023-01-19T01:25:02.838Z,8.13
2023-01-19T01:27:29.658Z,7.82
2023-01-19T01:29:56.821Z,8.85
2023-01-19T01:32:23.717Z,10.68
2023-01-19T01:34:51.067Z,7.35
2023-01-19T01:37:18.713Z,8.88
2023-01-19T01:39:46.319Z,10.25
2023-01-19T01:42:18.146Z,9.68
2023-01-19T01:44:58.560Z,7.50
2023-01-19T01:47:37.732Z,8.27
2023-01-19T01:50:21.650Z,15.30
2023-01-19T01:53:07.299Z,9.73
2023-01-19T01:55:37.090Z,12.88
2023-01-19T01:58:04.314Z,8.00
2023-01-19T02:00:54.553Z,8.20
2023-01-19T02:03:23.114Z,11.80
2023-01-19T02:05:52.185Z,9.75
2023-01-19T02:08:42.415Z,9.63
2023-01-19T02:11:28.271Z,8.70
2023-01-19T02:13:55.514Z,10.23
2023-01-19T02:16:22.402Z,8.82
2023-01-19T02:18:49.303Z,7.47
2023-01-19T02:21:55.169Z,9.32
2023-01-19T02:24:22.068Z,8.68
2023-01-19T02:26:49.057Z,8.82
2023-01-19T02:29:20.314Z,8.50
2023-01-19T02:31:47.716Z,9.30
2023-01-19T02:34:18.996Z,8.57
2023-01-19T02:36:56.072Z,8.77
2023-01-19T02:39:26.268Z,7.95
2023-01-19T02:41:57.503Z,8.23
2023-01-19T02:44:24.800Z,6.30
2023-01-19T02:46:54.242Z,8.00
2023-01-19T02:49:21.104Z,8.77
2023-01-19T02:51:47.953Z,9.63
2023-01-19T02:54:36.660Z,9.18
2023-01-19T02:57:12.445Z,10.95
2023-01-19T03:00:09.802Z,8.82
2023-01-19T03:02:39.738Z,8.68
2023-01-19T03:05:27.203Z,7.57
2023-01-19T03:07:57.026Z,12.45
2023-01-19T03:10:59.134Z,7.47
2023-01-19T03:13:42.722Z,9.80
2023-01-19T03:16:18.462Z,8.57
2023-01-19T03:18:48.058Z,7.38
2023-01-19T03:21:15.069Z,9.82
2023-01-19T03:23:42.366Z,8.43
2023-01-19T03:26:11.106Z,7.35
2023-01-19T03:28:38.529Z,7.60
2023-01-19T03:31:13.329Z,11.57
2023-01-19T03:33:41.607Z,8.73
2023-01-19T03:36:14.782Z,9.88
2023-01-19T03:38:41.960Z,7.55
2023-01-19T03:41:11.367Z,8.35
2023-01-19T03:43:38.476Z,9.32
2023-01-19T03:46:05.463Z,10.18
2023-01-19T03:48:32.815Z,7.50
2023-01-19T03:51:04.030Z,9.68
2023-01-19T03:53:30.981Z,10.02
2023-01-19T03:55:57.849Z,7.72
2023-01-19T03:58:24.787Z,8.25
2023-01-19T04:00:51.664Z,8.75
2023-01-19T04:03:18.752Z,8.23
2023-01-19T04:05:45.850Z,10.02
2023-01-19T04:08:12.935Z,13.80
2023-01-19T04:10:39.904Z,11.93
2023-01-19T04:13:06.801Z,9.48
2023-01-19T04:15:33.655Z,7.60
2023-01-19T04:18:00.799Z,11.15
2023-01-19T04:20:28.296Z,7.55
2023-01-19T04:22:58.628Z,11.60
2023-01-19T04:25:25.684Z,9.10
2023-01-19T04:27:53.524Z,9.60
2023-01-19T04:30:20.894Z,8.13
2023-01-19T04:32:47.792Z,10.77
2023-01-19T04:35:14.802Z,9.13
2023-01-19T04:37:41.646Z,9.55
2023-01-19T04:40:09.210Z,8.02
2023-01-19T04:42:36.046Z,9.88
2023-01-19T04:45:02.999Z,8.50
2023-01-19T04:47:29.794Z,8.45
2023-01-19T04:49:56.730Z,9.30
2023-01-19T04:52:23.703Z,8.05
2023-01-19T04:54:50.592Z,7.05
2023-01-19T04:57:17.410Z,8.18
2023-01-19T04:59:44.323Z,10.50
2023-01-19T05:02:11.702Z,8.75
2023-01-19T05:04:38.615Z,9.00
2023-01-19T05:07:05.423Z,8.90
2023-01-19T05:09:32.514Z,8.43
2023-01-19T05:11:59.324Z,9.07
2023-01-19T05:14:26.203Z,9.38
2023-01-19T05:16:53.002Z,8.63
2023-01-19T05:19:19.883Z,9.40
2023-01-19T05:21:47.026Z,9.02
2023-01-19T05:24:13.929Z,7.75
2023-01-19T05:26:40.829Z,11.32
2023-01-19T05:29:08.266Z,9.32
2023-01-19T05:31:36.106Z,12.35
2023-01-19T05:34:03.758Z,8.00
2023-01-19T05:36:31.908Z,8.20
2023-01-19T05:38:58.854Z,9.35
2023-01-19T05:41:25.783Z,6.78
2023-01-19T05:43:52.699Z,9.68
2023-01-19T05:46:19.591Z,12.20
2023-01-19T05:48:46.474Z,8.00
2023-01-19T05:51:13.431Z,8.65
2023-01-19T05:53:40.230Z,9.90
2023-01-19T05:56:10.820Z,11.27
2023-01-19T05:58:39.490Z,8.60
2023-01-19T06:01:06.975Z,10.98
2023-01-19T06:03:34.182Z,9.13
2023-01-19T06:06:01.289Z,8.95
2023-01-19T06:08:28.340Z,9.45
2023-01-19T06:10:55.202Z,10.63
2023-01-19T06:13:22.189Z,8.63
2023-01-19T06:15:49.077Z,9.13
2023-01-19T06:18:16.051Z,9.82
2023-01-19T06:20:42.967Z,9.13
2023-01-19T06:23:10.579Z,9.27
2023-01-19T06:25:37.431Z,12.57
2023-01-19T06:28:04.514Z,10.35
2023-01-19T06:30:31.464Z,10.30
2023-01-19T06:32:58.709Z,9.75
2023-01-19T06:35:25.716Z,8.27
2023-01-19T06:37:52.910Z,10.73
2023-01-19T06:40:19.785Z,9.77
2023-01-19T06:42:46.827Z,8.20
2023-01-19T06:45:13.602Z,9.63
2023-01-19T06:47:40.608Z,10.90
2023-01-19T06:50:07.947Z,11.30
2023-01-19T06:52:42.097Z,9.82
2023-01-19T06:55:10.875Z,9.88
2023-01-19T06:57:38.851Z,10.50
2023-01-19T07:00:08.546Z,8.80
2023-01-19T07:02:36.079Z,12.90
2023-01-19T07:05:03.152Z,10.82
2023-01-19T07:07:30.116Z,6.80
2023-01-19T07:09:57.059Z,9.55
2023-01-19T07:12:24.069Z,11.48
2023-01-19T07:14:51.397Z,10.60
2023-01-19T07:17:18.430Z,10.88
2023-01-19T07:19:46.465Z,11.18
2023-01-19T07:22:13.348Z,9.98
2023-01-19T07:24:40.148Z,12.43
2023-01-19T07:27:07.100Z,13.23
2023-01-19T07:29:34.017Z,11.77
2023-01-19T07:32:00.896Z,12.02
2023-01-19T07:34:27.943Z,10.35
2023-01-19T07:36:55.999Z,10.60
2023-01-19T07:39:22.893Z,12.05
2023-01-19T07:41:49.887Z,10.13
2023-01-19T07:44:16.826Z,9.45
2023-01-19T07:46:43.788Z,9.48
2023-01-19T07:49:11.502Z,10.32
2023-01-19T07:51:38.387Z,11.55
2023-01-19T07:54:05.727Z,9.48
2023-01-19T07:56:33.913Z,9.93
2023-01-19T07:59:01.044Z,7.60
2023-01-19T08:01:28.082Z,9.25
2023-01-19T08:03:55.045Z,10.43
2023-01-19T08:06:23.183Z,10.27
2023-01-19T08:08:50.392Z,10.52
2023-01-19T08:11:17.454Z,10.48
2023-01-19T08:13:44.347Z,10.20
2023-01-19T08:16:11.469Z,10.00
2023-01-19T08:18:38.405Z,8.75
2023-01-19T08:21:05.464Z,9.80
2023-01-19T08:23:32.475Z,10.02
2023-01-19T08:25:59.702Z,13.00
2023-01-19T08:28:26.636Z,9.50
2023-01-19T08:30:56.460Z,12.10
2023-01-19T08:33:23.815Z,10.70
2023-01-19T08:35:52.302Z,9.38
2023-01-19T08:38:19.252Z,8.13
2023-01-19T08:40:46.111Z,7.97
2023-01-19T08:43:16.945Z,11.02
2023-01-19T08:45:50.201Z,9.02
2023-01-19T08:48:19.599Z,9.75
2023-01-19T08:50:47.601Z,8.95
2023-01-19T08:53:14.625Z,8.43
2023-01-19T08:55:41.667Z,10.77
2023-01-19T08:58:11.244Z,12.02
2023-01-19T09:00:38.996Z,9.00
2023-01-19T09:03:07.368Z,10.50
2023-01-19T09:05:37.271Z,9.40
2023-01-19T09:08:05.271Z,9.10
2023-01-19T09:10:35.871Z,7.15
2023-01-19T09:13:08.134Z,9.20
2023-01-19T09:15:37.536Z,9.93
2023-01-19T09:18:05.773Z,9.80
2023-01-19T09:20:34.632Z,11.20
2023-01-19T09:23:01.686Z,10.35
2023-01-19T09:25:28.719Z,8.55
2023-01-19T09:27:56.246Z,7.40
2023-01-19T09:30:23.267Z,8.60
2023-01-19T09:32:50.314Z,10.52
2023-01-19T09:35:32.999Z,10.15
2023-01-19T09:40:27.518Z,10.48
2023-01-19T09:43:04.978Z,8.73
2023-01-19T09:45:36.522Z,10.02
2023-01-19T09:48:05.895Z,8.77
2023-01-19T09:50:36.512Z,9.20
2023-01-19T09:53:07.460Z,11.38
2023-01-19T09:55:34.356Z,12.23
2023-01-19T09:58:01.475Z,10.75
2023-01-19T10:00:28.697Z,10.50
2023-01-19T10:03:17.572Z,9.43
2023-01-19T10:05:58.893Z,9.68
2023-01-19T10:08:33.429Z,8.82
2023-01-19T10:11:00.499Z,8.98
2023-01-19T10:13:44.137Z,9.10
2023-01-19T10:16:31.626Z,8.15
2023-01-19T10:19:03.240Z,9.82
2023-01-19T10:21:37.570Z,9.50
2023-01-19T10:24:33.283Z,8.45
2023-01-19T10:27:00.258Z,8.07
2023-01-19T10:29:37.703Z,8.95
2023-01-19T10:32:21.204Z,9.60
2023-01-19T10:34:49.196Z,10.38
2023-01-19T10:37:29.280Z,8.60
2023-01-19T10:40:01.834Z,10.57
2023-01-19T10:42:29.828Z,9.27
2023-01-19T10:44:56.662Z,12.43
2023-01-19T10:47:27.374Z,10.85
2023-01-19T10:49:55.102Z,11.63
2023-01-19T10:52:27.650Z,11.30
2023-01-19T10:54:54.579Z,13.27
2023-01-19T10:57:37.752Z,8.65
2023-01-19T11:00:34.800Z,11.70
2023-01-19T11:03:02.184Z,11.80
2023-01-19T11:05:31.235Z,10.00
2023-01-19T11:07:58.240Z,11.38
2023-01-19T11:10:29.222Z,9.93
2023-01-19T11:13:00.925Z,13.55
2023-01-19T11:15:35.883Z,10.73
2023-01-19T11:18:04.235Z,11.70
2023-01-19T11:20:54.883Z,12.45
2023-01-19T11:23:45.160Z,9.52
2023-01-19T11:26:34.534Z,8.52
2023-01-19T11:29:02.681Z,9.18
2023-01-19T11:31:29.591Z,10.40
2023-01-19T11:33:58.726Z,10.82
2023-01-19T11:36:35.752Z,9.45
2023-01-19T11:39:23.778Z,9.35
2023-01-19T11:41:57.120Z,10.32
2023-01-19T11:44:36.324Z,10.38
2023-01-19T11:47:05.053Z,9.15
2023-01-19T11:50:19.759Z,10.32
2023-01-19T11:52:51.372Z,9.32
2023-01-19T11:55:38.832Z,13.05
2023-01-19T11:58:05.884Z,9.75
2023-01-19T12:00:44.977Z,8.93
2023-01-19T12:03:21.781Z,14.02
2023-01-19T12:05:51.320Z,9.35
2023-01-19T12:08:27.000Z,11.55
2023-01-19T12:10:55.179Z,9.25
2023-01-19T12:13:23.699Z,9.57
2023-01-19T12:16:12.751Z,8.50
2023-01-19T12:18:44.706Z,9.23
2023-01-19T12:21:11.758Z,11.80
2023-01-19T12:23:56.435Z,12.60
2023-01-19T12:26:55.183Z,8.93
2023-01-19T12:29:27.950Z,11.80
2023-01-19T12:32:33.529Z,12.63
2023-01-19T12:35:00.672Z,12.48
2023-01-19T12:37:30.291Z,13.18
2023-01-19T12:39:58.514Z,10.32
2023-01-19T12:42:25.672Z,11.27
2023-01-19T12:45:04.833Z,12.35
2023-01-19T12:47:31.944Z,9.23
2023-01-19T12:50:05.892Z,13.27
2023-01-19T12:52:35.045Z,12.15
2023-01-19T12:55:14.969Z,12.30
2023-01-19T12:57:51.748Z,11.63
2023-01-19T13:00:24.734Z,9.60
2023-01-19T13:02:53.646Z,12.90
2023-01-19T13:05:33.558Z,11.82
2023-01-19T13:08:04.857Z,9.52
2023-01-19T13:11:02.812Z,13.75
2023-01-19T13:13:33.390Z,10.45
2023-01-19T13:16:24.889Z,7.72
2023-01-19T13:18:56.067Z,9.70
2023-01-19T13:21:33.168Z,10.93
2023-01-19T13:24:04.487Z,12.88
2023-01-19T13:26:36.049Z,11.43
2023-01-19T13:29:15.686Z,11.23
2023-01-19T13:31:44.586Z,8.98
2023-01-19T13:34:25.723Z,12.23
2023-01-19T13:36:54.409Z,10.55
2023-01-19T13:39:24.020Z,8.88
2023-01-19T13:41:52.022Z,13.88
2023-01-19T13:44:25.509Z,11.20
2023-01-19T13:46:52.664Z,13.32
2023-01-19T13:49:29.652Z,11.23
2023-01-19T13:52:11.858Z,10.82
2023-01-19T13:54:48.220Z,10.60
2023-01-19T13:57:28.966Z,15.88
2023-01-19T14:00:16.883Z,12.45
2023-01-19T14:03:23.827Z,12.15
2023-01-19T14:05:52.496Z,12.95
2023-01-19T14:08:19.648Z,15.75
2023-01-19T14:11:02.540Z,14.55
2023-01-19T14:13:40.166Z,14.05
2023-01-19T14:16:19.982Z,14.43
2023-01-19T14:18:46.970Z,12.30
2023-01-19T14:21:14.534Z,12.23
2023-01-19T14:23:51.337Z,9.32
2023-01-19T14:26:45.507Z,11.82
2023-01-19T14:29:25.919Z,13.95
2023-01-19T14:32:01.653Z,9.77
2023-01-19T14:34:31.605Z,11.00
2023-01-19T14:36:58.820Z,12.27
2023-01-19T14:39:27.282Z,11.95
2023-01-19T14:41:54.410Z,12.57
2023-01-19T14:44:31.365Z,12.27
2023-01-19T14:46:59.677Z,11.20
2023-01-19T14:49:34.108Z,10.15
2023-01-19T14:52:02.906Z,16.08
2023-01-19T14:54:33.810Z,7.95
2023-01-19T14:57:00.875Z,11.25
2023-01-19T14:59:27.868Z,10.85
2023-01-19T15:01:54.849Z,10.00
2023-01-19T15:04:21.899Z,9.68
2023-01-19T15:06:48.780Z,8.80
2023-01-19T15:09:15.995Z,9.70
2023-01-19T15:11:42.946Z,9.23
2023-01-19T15:14:12.570Z,8.90
2023-01-19T15:16:39.543Z,10.00
2023-01-19T15:19:15.191Z,10.27
2023-01-19T15:21:42.435Z,10.18
2023-01-19T15:24:12.965Z,8.93
2023-01-19T15:26:41.263Z,8.52
2023-01-19T15:29:26.629Z,8.60
2023-01-19T15:31:53.801Z,8.48
2023-01-19T15:34:21.035Z,8.70
2023-01-19T15:36:47.916Z,8.95
2023-01-19T15:39:14.964Z,10.82
2023-01-19T15:41:41.873Z,10.57
2023-01-19T15:44:10.710Z,6.90
2023-01-19T15:46:37.777Z,11.00
2023-01-19T15:49:05.824Z,10.70
2023-01-19T15:51:33.200Z,8.27
2023-01-19T15:54:00.142Z,12.93
2023-01-19T15:56:28.776Z,9.38
2023-01-19T15:58:56.250Z,7.07
2023-01-19T16:01:30.835Z,9.05
2023-01-19T16:04:05.772Z,9.27
2023-01-19T16:06:32.996Z,9.13
2023-01-19T16:09:01.173Z,9.13
2023-01-19T16:11:29.278Z,10.10
2023-01-19T16:13:56.224Z,10.20
2023-01-19T16:16:28.170Z,9.35
2023-01-19T16:18:55.606Z,7.05
2023-01-19T16:21:22.593Z,8.95
2023-01-19T16:23:49.702Z,8.25
2023-01-19T16:26:26.595Z,7.57
2023-01-19T16:28:56.652Z,6.32
2023-01-19T16:31:23.778Z,9.65
2023-01-19T16:33:50.685Z,11.68
2023-01-19T16:36:34.167Z,10.38
2023-01-19T16:39:02.390Z,8.55
2023-01-19T16:41:29.407Z,7.05
2023-01-19T16:43:57.192Z,8.18
2023-01-19T16:46:34.499Z,7.95
2023-01-19T16:49:06.182Z,10.20
2023-01-19T16:51:33.338Z,10.57
2023-01-19T16:54:00.300Z,8.30
2023-01-19T16:56:27.327Z,8.18
2023-01-19T16:58:54.882Z,9.75
2023-01-19T17:01:22.083Z,7.45
2023-01-19T17:03:49.096Z,10.30
2023-01-19T17:06:20.519Z,8.93
2023-01-19T17:08:47.501Z,8.95
2023-01-19T17:11:20.446Z,13.55
2023-01-19T17:13:48.537Z,9.45
2023-01-19T17:16:15.548Z,9.20
2023-01-19T17:18:42.502Z,10.07
2023-01-19T17:21:10.002Z,12.43
2023-01-19T17:23:37.514Z,12.27
2023-01-19T17:26:04.701Z,10.13
2023-01-19T17:28:31.654Z,12.18
2023-01-19T17:31:05.857Z,13.65
2023-01-19T17:33:32.812Z,10.57
2023-01-19T17:36:07.539Z,11.32
2023-01-19T17:38:35.099Z,10.85
2023-01-19T17:41:02.332Z,14.13
2023-01-19T17:43:29.307Z,10.30
2023-01-19T17:45:56.318Z,18.25
2023-01-19T17:48:23.437Z,11.27
2023-01-19T17:50:50.570Z,19.48
2023-01-19T17:53:17.668Z,16.52
2023-01-19T17:55:44.630Z,14.70
2023-01-19T17:58:11.607Z,15.00
2023-01-19T18:00:38.600Z,15.30
2023-01-19T18:03:07.817Z,15.40
2023-01-19T18:05:34.801Z,17.08
2023-01-19T18:08:01.939Z,18.90
2023-01-19T18:10:28.905Z,16.52
2023-01-19T18:12:55.812Z,16.95
2023-01-19T18:15:22.610Z,14.30
2023-01-19T18:17:49.535Z,15.55
2023-01-19T18:20:16.851Z,12.70
2023-01-19T18:22:43.790Z,15.02
2023-01-19T18:25:10.709Z,18.63
2023-01-19T18:27:37.501Z,17.55
2023-01-19T18:30:04.975Z,32.72
2023-01-19T18:32:34.240Z,36.25
2023-01-19T18:35:02.567Z,31.75
2023-01-19T18:37:29.457Z,27.13
2023-01-19T18:39:59.633Z,27.20
2023-01-19T18:42:26.792Z,23.05
2023-01-19T18:44:53.697Z,17.42
2023-01-19T18:47:20.716Z,19.08
2023-01-19T18:49:47.817Z,16.00
2023-01-19T18:52:14.826Z,15.70
2023-01-19T18:54:41.752Z,15.43
2023-01-19T18:57:08.545Z,17.13
2023-01-19T18:59:35.410Z,19.35
2023-01-19T19:02:05.160Z,19.92
2023-01-19T19:04:32.048Z,17.95
2023-01-19T19:06:58.950Z,18.10
2023-01-19T19:09:26.026Z,16.27
2023-01-19T19:11:53.148Z,18.15
2023-01-19T19:14:20.003Z,18.75
2023-01-19T19:16:46.952Z,13.85
2023-01-19T19:19:15.408Z,15.80
2023-01-19T19:21:43.007Z,17.13
2023-01-19T19:24:11.461Z,14.20
2023-01-19T19:26:38.354Z,16.55
2023-01-19T19:29:05.357Z,15.02
2023-01-19T19:31:32.350Z,15.15
2023-01-19T19:33:59.396Z,17.38
2023-01-19T19:36:27.090Z,16.65
2023-01-19T19:38:54.022Z,20.33
2023-01-19T19:41:22.735Z,23.48
2023-01-19T19:43:49.771Z,17.75
2023-01-19T19:46:21.098Z,22.35
2023-01-19T19:48:48.483Z,22.02
2023-01-19T19:51:19.041Z,17.80
2023-01-19T19:53:47.466Z,19.48
2023-01-19T19:56:15.367Z,22.70
2023-01-19T19:58:42.570Z,21.08
2023-01-19T20:01:11.280Z,24.45
2023-01-19T20:03:38.399Z,21.48
2023-01-19T20:06:10.294Z,20.13
2023-01-19T20:08:37.309Z,16.33
2023-01-19T20:11:08.687Z,17.15
2023-01-19T20:13:35.971Z,16.08
2023-01-19T20:16:04.103Z,19.10
2023-01-19T20:18:31.581Z,19.13
2023-01-19T20:20:59.072Z,21.40
2023-01-19T20:23:26.286Z,16.27
2023-01-19T20:25:53.192Z,18.08
2023-01-19T20:28:20.124Z,17.90
2023-01-19T20:30:47.292Z,16.02
2023-01-19T20:33:14.223Z,21.70
2023-01-19T20:35:41.080Z,15.93
2023-01-19T20:38:08.637Z,18.38
2023-01-19T20:40:35.546Z,19.00
2023-01-19T20:43:02.428Z,18.58
2023-01-19T20:45:29.356Z,19.15
2023-01-19T20:47:56.463Z,17.00
2023-01-19T20:50:23.404Z,15.32
2023-01-19T20:52:50.311Z,14.90
2023-01-19T20:55:17.991Z,17.33
2023-01-19T20:57:44.848Z,17.30
2023-01-19T21:00:12.200Z,15.38
2023-01-19T21:02:39.391Z,13.38
2023-01-19T21:05:06.852Z,14.48
2023-01-19T21:07:33.887Z,15.63
2023-01-19T21:10:00.744Z,15.75
2023-01-19T21:12:27.545Z,14.10
2023-01-19T21:14:54.570Z,16.52
2023-01-19T21:17:21.481Z,13.90
2023-01-19T21:19:48.434Z,15.70
2023-01-19T21:22:15.447Z,14.32
2023-01-19T21:24:44.457Z,13.75
2023-01-19T21:27:11.601Z,13.32
2023-01-19T21:29:38.402Z,16.30
2023-01-19T21:32:05.551Z,13.38
2023-01-19T21:34:32.518Z,13.30
2023-01-19T21:36:59.441Z,16.10
2023-01-19T21:39:26.342Z,17.75
2023-01-19T21:41:53.184Z,13.25
2023-01-19T21:44:20.116Z,14.02
2023-01-19T21:46:47.056Z,14.90
2023-01-19T21:49:18.101Z,11.48
2023-01-19T21:51:46.031Z,14.18
2023-01-19T21:54:13.986Z,12.45
2023-01-19T21:56:43.240Z,12.40
2023-01-19T21:59:14.667Z,14.43
2023-01-19T22:01:42.629Z,16.58
2023-01-19T22:04:09.755Z,14.00
2023-01-19T22:06:36.659Z,15.60
2023-01-19T22:09:03.870Z,12.02
2023-01-19T22:11:31.057Z,14.20
2023-01-19T22:13:59.735Z,11.75
2023-01-19T22:16:26.881Z,12.93
2023-01-19T22:18:57.525Z,12.85
2023-01-19T22:21:25.944Z,13.27
2023-01-19T22:23:54.383Z,16.15
2023-01-19T22:26:21.491Z,13.80
2023-01-19T22:28:48.542Z,15.70
2023-01-19T22:31:17.054Z,15.07
2023-01-19T22:33:44.142Z,13.63
2023-01-19T22:36:20.981Z,16.02
2023-01-19T22:39:00.959Z,14.30
2023-01-19T22:41:32.417Z,12.85
2023-01-19T22:44:01.135Z,13.95
2023-01-19T22:46:29.592Z,13.57
2023-01-19T22:48:56.863Z,14.85
2023-01-19T22:51:24.157Z,13.75
2023-01-19T22:53:51.298Z,12.98
2023-01-19T22:56:19.758Z,16.52
2023-01-19T22:58:46.867Z,12.82
2023-01-19T23:01:18.632Z,12.63
2023-01-19T23:03:45.637Z,14.60
2023-01-19T23:06:14.165Z,16.50
2023-01-19T23:08:41.517Z,12.93
2023-01-19T23:11:10.498Z,13.98
2023-01-19T23:13:37.637Z,14.13
2023-01-19T23:16:05.654Z,14.88
2023-01-19T23:18:32.981Z,14.88
2023-01-19T23:21:07.542Z,15.98
2023-01-19T23:23:34.892Z,11.45
2023-01-19T23:26:09.455Z,12.40
2023-01-19T23:28:39.257Z,11.23
2023-01-19T23:31:33.177Z,11.90
2023-01-19T23:34:01.806Z,11.48
2023-01-19T23:36:29.854Z,12.18
2023-01-19T23:38:58.674Z,11.13
2023-01-19T23:41:25.757Z,11.40
2023-01-19T23:43:52.652Z,9.10
2023-01-19T23:46:19.605Z,12.18
2023-01-19T23:48:46.535Z,11.65
2023-01-19T23:51:31.952Z,13.10
2023-01-19T23:53:59.364Z,13.68
2023-01-19T23:56:33.678Z,9.45
2023-01-19T23:59:09.462Z,11.50
